createdAt,value
2019-06-26T00:00:09.148Z,82.72
2019-06-26T00:02:42.929Z,83.39
2019-06-26T00:05:15.797Z,83.30
2019-06-26T00:07:48.468Z,83.16
2019-06-26T00:10:21.247Z,84.46
2019-06-26T00:12:55.026Z,84.57
2019-06-26T00:15:27.660Z,85.06
2019-06-26T00:18:00.418Z,86.04
2019-06-26T00:20:33.266Z,87.34
2019-06-26T00:23:05.606Z,86.25
2019-06-26T00:25:38.139Z,87.50
2019-06-26T00:28:11.022Z,87.19
2019-06-26T00:30:44.849Z,87.89
2019-06-26T00:33:18.635Z,87.96
2019-06-26T00:35:51.554Z,87.67
2019-06-26T00:38:23.810Z,87.70
2019-06-26T00:40:56.746Z,87.88
2019-06-26T00:43:41.970Z,87.82
2019-06-26T00:46:03.717Z,87.85
2019-06-26T00:48:37.356Z,87.74
2019-06-26T00:51:10.164Z,88.12
2019-06-26T00:53:43.152Z,88.45
2019-06-26T00:56:15.768Z,88.48
2019-06-26T00:58:48.010Z,88.59
2019-06-26T01:01:20.318Z,89.01
2019-06-26T01:03:54.728Z,89.49
2019-06-26T01:06:45.316Z,89.82
2019-06-26T01:09:17.556Z,90.38
2019-06-26T01:11:49.968Z,90.80
2019-06-26T01:14:22.730Z,91.21
2019-06-26T01:16:55.317Z,91.16
2019-06-26T01:19:28.071Z,90.25
2019-06-26T01:22:01.067Z,90.84
2019-06-26T01:24:33.866Z,91.01
2019-06-26T01:27:06.369Z,90.95
2019-06-26T01:29:39.316Z,91.57
2019-06-26T01:32:12.076Z,91.86
2019-06-26T01:34:46.903Z,92.47
2019-06-26T01:37:19.514Z,92.80
2019-06-26T01:39:52.271Z,92.35
2019-06-26T01:42:24.876Z,92.11
2019-06-26T01:44:57.466Z,92.42
2019-06-26T01:47:29.965Z,92.80
2019-06-26T01:50:02.882Z,93.13
2019-06-26T01:52:35.674Z,93.01
2019-06-26T01:55:12.140Z,93.33
2019-06-26T01:57:45.017Z,92.78
2019-06-26T02:00:18.087Z,93.00
2019-06-26T02:02:50.912Z,94.34
2019-06-26T02:05:24.896Z,94.96
2019-06-26T02:07:57.499Z,94.94
2019-06-26T02:10:29.869Z,94.50
2019-06-26T02:13:02.281Z,94.72
2019-06-26T02:15:35.204Z,94.62
2019-06-26T02:18:09.883Z,94.94
2019-06-26T02:20:42.708Z,94.99
2019-06-26T02:23:15.342Z,95.41
2019-06-26T02:25:47.688Z,94.78
2019-06-26T02:28:20.205Z,94.78
2019-06-26T02:30:53.120Z,95.21
2019-06-26T02:33:26.959Z,96.07
2019-06-26T02:35:59.808Z,96.43
2019-06-26T02:38:32.422Z,97.65
2019-06-26T02:41:06.460Z,97.98
2019-06-26T02:43:39.394Z,97.69
2019-06-26T02:46:11.930Z,97.49
2019-06-26T02:48:44.739Z,97.72
2019-06-26T02:51:17.729Z,97.55
2019-06-26T02:53:50.345Z,98.41
2019-06-26T02:56:22.688Z,99.14
2019-06-26T02:58:54.997Z,99.93
2019-06-26T03:01:27.842Z,99.80
2019-06-26T03:04:00.476Z,99.54
2019-06-26T03:06:33.403Z,98.89
2019-06-26T03:09:08.078Z,98.06
2019-06-26T03:11:40.818Z,98.56
2019-06-26T03:14:13.692Z,98.18
2019-06-26T03:16:46.232Z,97.85
2019-06-26T03:19:18.632Z,97.83
2019-06-26T03:21:50.990Z,97.53
2019-06-26T03:24:23.705Z,96.65
2019-06-26T03:26:56.469Z,96.89
2019-06-26T03:29:29.083Z,97.10
2019-06-26T03:32:01.824Z,96.45
2019-06-26T03:34:34.819Z,96.80
2019-06-26T03:37:07.809Z,96.30
2019-06-26T03:39:40.821Z,95.37
2019-06-26T03:42:13.770Z,95.77
2019-06-26T03:44:46.393Z,95.48
2019-06-26T03:47:18.746Z,95.98
2019-06-26T03:49:51.618Z,96.41
2019-06-26T03:52:24.490Z,95.16
2019-06-26T03:54:57.340Z,94.86
2019-06-26T03:57:29.903Z,95.03
2019-06-26T04:00:02.510Z,94.39
2019-06-26T04:02:35.053Z,93.06
2019-06-26T04:05:10.044Z,93.69
2019-06-26T04:07:43.031Z,93.26
2019-06-26T04:10:15.990Z,92.61
2019-06-26T04:12:48.548Z,92.35
2019-06-26T04:15:21.077Z,91.70
2019-06-26T04:17:53.626Z,90.97
2019-06-26T04:20:27.143Z,89.43
2019-06-26T04:22:59.822Z,90.71
2019-06-26T04:25:32.345Z,89.19
2019-06-26T04:28:06.441Z,88.77
2019-06-26T04:30:38.569Z,88.29
2019-06-26T04:33:11.253Z,87.00
2019-06-26T04:35:43.581Z,86.92
2019-06-26T04:38:16.262Z,85.40
2019-06-26T04:40:48.687Z,84.23
2019-06-26T04:43:20.948Z,84.04
2019-06-26T04:45:57.993Z,83.19
2019-06-26T04:48:27.509Z,82.94
2019-06-26T04:50:59.825Z,81.85
2019-06-26T04:53:32.083Z,81.64
2019-06-26T04:56:04.974Z,81.14
2019-06-26T04:58:37.211Z,80.21
2019-06-26T05:01:09.548Z,79.91
2019-06-26T05:03:42.042Z,79.07
2019-06-26T05:06:14.762Z,78.07
2019-06-26T05:08:47.111Z,77.83
2019-06-26T05:11:19.439Z,75.84
2019-06-26T05:13:51.684Z,75.87
2019-06-26T05:16:24.005Z,75.22
2019-06-26T05:18:56.505Z,74.82
2019-06-26T05:21:29.318Z,74.96
2019-06-26T05:24:01.667Z,74.81
2019-06-26T05:26:34.177Z,73.39
2019-06-26T05:29:06.543Z,73.75
2019-06-26T05:31:39.305Z,72.52
2019-06-26T05:34:11.930Z,72.29
2019-06-26T05:36:44.651Z,71.83
2019-06-26T05:39:16.902Z,71.26
2019-06-26T05:41:49.611Z,70.64
2019-06-26T05:44:21.857Z,70.24
2019-06-26T05:46:55.282Z,69.76
2019-06-26T05:49:27.789Z,69.25
2019-06-26T05:52:02.182Z,68.77
2019-06-26T05:54:34.636Z,68.62
2019-06-26T05:57:07.198Z,67.30
2019-06-26T05:59:39.692Z,66.83
2019-06-26T06:02:12.450Z,66.63
2019-06-26T06:04:44.742Z,64.93
2019-06-26T06:07:17.424Z,64.93
2019-06-26T06:09:50.101Z,65.02
2019-06-26T06:12:22.477Z,63.87
2019-06-26T06:14:54.874Z,64.03
2019-06-26T06:17:27.208Z,63.63
2019-06-26T06:19:59.439Z,62.90
2019-06-26T06:22:32.254Z,62.60
2019-06-26T06:25:05.112Z,61.28
2019-06-26T06:27:37.936Z,61.28
2019-06-26T06:30:11.192Z,61.79
2019-06-26T06:32:43.913Z,59.90
2019-06-26T06:35:16.506Z,59.90
2019-06-26T06:37:49.375Z,60.08
2019-06-26T06:40:24.203Z,60.18
2019-06-26T06:42:57.244Z,60.35
2019-06-26T06:45:30.098Z,58.70
2019-06-26T06:48:03.168Z,57.33
2019-06-26T06:50:35.614Z,56.67
2019-06-26T06:53:08.417Z,57.83
2019-06-26T06:55:40.980Z,56.59
2019-06-26T06:58:13.388Z,55.28
2019-06-26T07:00:45.655Z,56.95
2019-06-26T07:03:18.520Z,56.54
2019-06-26T07:05:51.204Z,56.01
2019-06-26T07:08:24.046Z,54.05
2019-06-26T07:10:57.126Z,53.61
2019-06-26T07:13:30.168Z,53.96
2019-06-26T07:16:03.221Z,52.47
2019-06-26T07:18:35.742Z,52.20
2019-06-26T07:21:07.985Z,52.11
2019-06-26T07:23:40.756Z,51.74
2019-06-26T07:26:13.575Z,49.80
2019-06-26T07:28:46.398Z,50.74
2019-06-26T07:31:18.957Z,49.86
2019-06-26T07:33:55.422Z,50.29
2019-06-26T07:36:25.935Z,49.81
2019-06-26T07:39:00.189Z,49.42
2019-06-26T07:41:32.447Z,49.11
2019-06-26T07:44:05.391Z,47.46
2019-06-26T07:46:39.808Z,48.86
2019-06-26T07:49:12.587Z,47.05
2019-06-26T07:51:44.842Z,46.33
2019-06-26T07:54:17.743Z,45.32
2019-06-26T07:56:50.440Z,44.51
2019-06-26T07:59:22.754Z,43.26
2019-06-26T08:01:55.001Z,43.55
2019-06-26T08:04:28.227Z,42.83
2019-06-26T08:07:00.751Z,42.57
2019-06-26T08:09:33.092Z,41.58
2019-06-26T08:12:05.767Z,40.71
2019-06-26T08:14:38.081Z,40.15
2019-06-26T08:17:10.640Z,39.63
2019-06-26T08:19:43.407Z,39.81
2019-06-26T08:22:15.657Z,39.50
2019-06-26T08:24:48.283Z,39.81
2019-06-26T08:27:20.547Z,37.60
2019-06-26T08:29:53.301Z,36.97
2019-06-26T08:32:26.208Z,36.71
2019-06-26T08:34:58.612Z,36.78
2019-06-26T08:37:31.100Z,36.13
2019-06-26T08:40:04.129Z,35.10
2019-06-26T08:42:37.728Z,34.92
2019-06-26T08:45:12.064Z,35.98
2019-06-26T08:47:44.771Z,34.96
2019-06-26T08:50:17.843Z,34.80
2019-06-26T08:52:50.956Z,34.07
2019-06-26T08:55:23.378Z,32.74
2019-06-26T08:57:56.160Z,33.51
2019-06-26T09:00:28.475Z,34.19
2019-06-26T09:03:01.553Z,32.52
2019-06-26T09:05:47.701Z,32.70
2019-06-26T09:08:08.843Z,32.67
2019-06-26T09:10:44.725Z,32.96
2019-06-26T09:13:15.629Z,32.56
2019-06-26T09:15:49.896Z,32.14
2019-06-26T09:18:34.885Z,31.97
2019-06-26T09:20:56.321Z,31.21
2019-06-26T09:23:31.022Z,31.27
2019-06-26T09:26:02.566Z,30.76
2019-06-26T09:28:34.912Z,30.40
2019-06-26T09:31:07.464Z,29.96
2019-06-26T09:33:39.812Z,29.38
2019-06-26T09:36:12.226Z,29.67
2019-06-26T09:38:44.706Z,29.33
2019-06-26T09:41:17.647Z,29.51
2019-06-26T09:43:49.901Z,30.17
2019-06-26T09:46:22.545Z,29.87
2019-06-26T09:48:54.984Z,29.99
2019-06-26T09:51:27.506Z,30.73
2019-06-26T09:54:00.282Z,30.28
2019-06-26T09:56:33.896Z,30.20
2019-06-26T09:59:06.533Z,29.68
2019-06-26T10:01:39.399Z,29.42
2019-06-26T10:04:12.121Z,29.29
2019-06-26T10:06:44.845Z,30.12
2019-06-26T10:09:17.529Z,29.72
2019-06-26T10:11:49.944Z,30.62
2019-06-26T10:14:22.191Z,31.01
2019-06-26T10:16:55.084Z,30.89
2019-06-26T10:19:28.141Z,30.77
2019-06-26T10:22:00.835Z,30.52
2019-06-26T10:24:33.059Z,30.21
2019-06-26T10:27:05.588Z,29.20
2019-06-26T10:29:37.930Z,29.33
2019-06-26T10:32:10.396Z,29.72
2019-06-26T10:34:43.354Z,29.24
2019-06-26T10:37:16.080Z,28.80
2019-06-26T10:39:49.501Z,29.29
2019-06-26T10:42:21.846Z,28.80
2019-06-26T10:44:54.055Z,29.14
2019-06-26T10:47:26.964Z,28.62
2019-06-26T10:49:59.608Z,28.36
2019-06-26T10:52:32.268Z,28.59
2019-06-26T10:55:10.640Z,28.49
2019-06-26T10:57:43.556Z,28.79
2019-06-26T11:00:16.499Z,28.17
2019-06-26T11:02:48.907Z,27.24
2019-06-26T11:05:22.444Z,27.28
2019-06-26T11:07:56.424Z,27.30
2019-06-26T11:10:29.112Z,27.49
2019-06-26T11:13:01.879Z,27.83
2019-06-26T11:15:34.872Z,26.87
2019-06-26T11:18:07.554Z,26.60
2019-06-26T11:20:39.904Z,25.37
2019-06-26T11:23:12.620Z,25.03
2019-06-26T11:25:44.898Z,24.61
2019-06-26T11:28:17.673Z,24.24
2019-06-26T11:30:50.094Z,24.87
2019-06-26T11:33:22.526Z,24.14
2019-06-26T11:35:54.788Z,23.83
2019-06-26T11:38:27.095Z,21.97
2019-06-26T11:41:01.787Z,22.03
2019-06-26T11:43:34.308Z,22.28
2019-06-26T11:46:06.927Z,22.11
2019-06-26T11:48:39.605Z,21.93
2019-06-26T11:51:12.381Z,21.47
2019-06-26T11:53:45.168Z,22.72
2019-06-26T11:56:17.923Z,22.36
2019-06-26T11:58:52.025Z,21.55
2019-06-26T12:01:24.645Z,21.55
2019-06-26T12:03:58.453Z,22.43
2019-06-26T12:06:32.485Z,22.17
2019-06-26T12:09:06.775Z,22.51
2019-06-26T12:11:39.371Z,21.83
2019-06-26T12:14:12.561Z,21.97
2019-06-26T12:16:45.266Z,22.20
2019-06-26T12:19:19.890Z,21.46
2019-06-26T12:21:53.155Z,21.46
2019-06-26T12:24:26.738Z,21.50
2019-06-26T12:26:59.941Z,21.46
2019-06-26T12:29:33.153Z,21.07
2019-06-26T12:32:06.037Z,20.86
2019-06-26T12:34:40.212Z,21.64
2019-06-26T12:37:12.661Z,21.18
2019-06-26T12:39:45.106Z,21.41
2019-06-26T12:42:17.822Z,21.26
2019-06-26T12:44:50.126Z,21.05
2019-06-26T12:47:22.469Z,19.93
2019-06-26T12:49:54.865Z,19.85
2019-06-26T12:52:27.719Z,20.00
2019-06-26T12:55:01.745Z,19.78
2019-06-26T12:57:34.885Z,19.91
2019-06-26T13:00:11.093Z,19.89
2019-06-26T13:02:44.064Z,19.80
2019-06-26T13:05:17.324Z,19.14
2019-06-26T13:07:50.294Z,18.45
2019-06-26T13:10:24.190Z,19.35
2019-06-26T13:12:57.574Z,19.58
2019-06-26T13:15:30.427Z,19.85
2019-06-26T13:18:02.991Z,19.03
2019-06-26T13:20:51.590Z,19.62
2019-06-26T13:23:09.546Z,18.99
2019-06-26T13:25:43.241Z,18.81
2019-06-26T13:28:15.776Z,18.23
2019-06-26T13:30:48.658Z,15.87
2019-06-26T13:33:22.093Z,16.57
2019-06-26T13:35:54.887Z,16.35
2019-06-26T13:38:27.868Z,16.37
2019-06-26T13:41:00.879Z,16.31
2019-06-26T13:43:33.450Z,16.41
2019-06-26T13:46:06.191Z,16.15
2019-06-26T13:48:39.099Z,16.01
2019-06-26T13:51:11.499Z,16.52
2019-06-26T13:53:44.557Z,16.51
2019-06-26T13:56:17.192Z,16.59
2019-06-26T13:58:49.511Z,16.44
2019-06-26T14:01:23.128Z,16.59
2019-06-26T14:03:56.503Z,16.61
2019-06-26T14:06:29.010Z,15.86
2019-06-26T14:09:01.483Z,16.16
2019-06-26T14:11:35.668Z,16.24
2019-06-26T14:14:08.023Z,16.52
2019-06-26T14:16:40.692Z,16.43
2019-06-26T14:19:13.358Z,16.72
2019-06-26T14:21:45.758Z,17.99
2019-06-26T14:24:18.355Z,17.70
2019-06-26T14:26:51.552Z,17.42
2019-06-26T14:29:24.326Z,17.09
2019-06-26T14:31:57.073Z,16.70
2019-06-26T14:34:31.211Z,17.40
2019-06-26T14:37:03.962Z,17.70
2019-06-26T14:39:36.303Z,17.50
2019-06-26T14:42:10.460Z,18.02
2019-06-26T14:44:42.898Z,17.35
2019-06-26T14:47:15.721Z,17.67
2019-06-26T14:49:48.271Z,17.68
2019-06-26T14:52:21.196Z,17.47
2019-06-26T14:54:54.053Z,18.04
2019-06-26T14:57:26.743Z,18.71
2019-06-26T14:59:59.516Z,18.69
2019-06-26T15:02:32.379Z,18.77
2019-06-26T15:05:06.912Z,18.68
2019-06-26T15:07:39.582Z,18.72
2019-06-26T15:10:12.231Z,18.61
2019-06-26T15:12:45.247Z,18.96
2019-06-26T15:15:19.098Z,18.96
2019-06-26T15:17:52.134Z,18.56
2019-06-26T15:20:25.127Z,18.50
2019-06-26T15:22:58.843Z,18.56
2019-06-26T15:25:32.017Z,18.29
2019-06-26T15:28:05.037Z,18.07
2019-06-26T15:30:37.795Z,18.04
2019-06-26T15:33:10.530Z,18.12
2019-06-26T15:35:43.341Z,18.27
2019-06-26T15:38:15.934Z,18.31
2019-06-26T15:40:48.274Z,19.68
2019-06-26T15:43:21.066Z,19.24
2019-06-26T15:45:54.041Z,18.90
2019-06-26T15:48:27.034Z,19.20
2019-06-26T15:50:59.578Z,19.82
2019-06-26T15:53:31.967Z,21.10
2019-06-26T15:56:04.297Z,20.20
2019-06-26T15:58:37.126Z,20.38
2019-06-26T16:01:10.104Z,20.95
2019-06-26T16:03:42.699Z,20.17
2019-06-26T16:06:15.471Z,20.16
2019-06-26T16:08:48.562Z,19.72
2019-06-26T16:11:21.446Z,19.32
2019-06-26T16:13:54.034Z,19.15
2019-06-26T16:16:26.361Z,18.96
2019-06-26T16:19:03.321Z,18.97
2019-06-26T16:21:36.039Z,18.86
2019-06-26T16:24:08.835Z,19.57
2019-06-26T16:26:41.371Z,19.52
2019-06-26T16:29:14.493Z,19.10
2019-06-26T16:31:47.025Z,19.36
2019-06-26T16:34:19.426Z,19.50
2019-06-26T16:36:52.963Z,19.22
2019-06-26T16:39:25.921Z,18.93
2019-06-26T16:41:58.353Z,19.37
2019-06-26T16:44:32.062Z,19.97
2019-06-26T16:47:04.614Z,19.92
2019-06-26T16:49:37.119Z,19.60
2019-06-26T16:52:09.877Z,19.76
2019-06-26T16:54:42.919Z,19.71
2019-06-26T16:57:15.415Z,19.93
2019-06-26T16:59:48.176Z,20.52
2019-06-26T17:02:21.155Z,21.96
2019-06-26T17:04:54.015Z,23.20
2019-06-26T17:07:26.723Z,24.00
2019-06-26T17:09:59.510Z,23.91
2019-06-26T17:12:32.057Z,23.12
2019-06-26T17:15:06.370Z,22.46
2019-06-26T17:17:39.286Z,23.97
2019-06-26T17:20:13.808Z,24.54
2019-06-26T17:22:46.748Z,25.44
2019-06-26T17:25:19.201Z,25.81
2019-06-26T17:27:51.842Z,26.48
2019-06-26T17:30:25.606Z,26.57
2019-06-26T17:32:58.233Z,26.78
2019-06-26T17:35:30.851Z,26.73
2019-06-26T17:38:03.546Z,26.75
2019-06-26T17:40:35.800Z,26.23
2019-06-26T17:43:12.461Z,25.73
2019-06-26T17:45:42.890Z,26.86
2019-06-26T17:48:15.545Z,27.84
2019-06-26T17:50:48.068Z,28.40
2019-06-26T17:53:22.035Z,29.18
2019-06-26T17:55:54.592Z,29.72
2019-06-26T17:58:27.488Z,30.32
2019-06-26T18:01:00.116Z,31.43
2019-06-26T18:03:32.898Z,31.07
2019-06-26T18:06:05.825Z,31.25
2019-06-26T18:08:38.063Z,31.75
2019-06-26T18:11:11.521Z,32.02
2019-06-26T18:13:43.759Z,32.70
2019-06-26T18:16:16.081Z,32.99
2019-06-26T18:18:48.320Z,33.57
2019-06-26T18:21:20.900Z,34.00
2019-06-26T18:23:53.282Z,34.33
2019-06-26T18:26:25.921Z,34.61
2019-06-26T18:28:58.421Z,34.99
2019-06-26T18:31:31.691Z,35.18
2019-06-26T18:34:04.530Z,36.18
2019-06-26T18:36:37.086Z,37.38
2019-06-26T18:39:10.244Z,36.98
2019-06-26T18:41:43.078Z,37.87
2019-06-26T18:44:15.339Z,36.58
2019-06-26T18:46:47.642Z,36.80
2019-06-26T18:49:21.292Z,36.87
2019-06-26T18:51:53.594Z,37.58
2019-06-26T18:54:26.276Z,37.77
2019-06-26T18:56:59.098Z,38.19
2019-06-26T18:59:31.354Z,38.54
2019-06-26T19:02:03.766Z,38.90
2019-06-26T19:04:37.000Z,38.92
2019-06-26T19:07:09.724Z,39.35
2019-06-26T19:09:42.438Z,39.74
2019-06-26T19:12:15.190Z,40.31
2019-06-26T19:14:48.676Z,40.10
2019-06-26T19:17:21.084Z,40.43
2019-06-26T19:19:53.827Z,40.40
2019-06-26T19:22:26.800Z,40.90
2019-06-26T19:24:59.442Z,41.17
2019-06-26T19:27:32.584Z,41.50
2019-06-26T19:30:07.940Z,41.79
2019-06-26T19:32:40.758Z,42.10
2019-06-26T19:35:20.613Z,42.12
2019-06-26T19:37:47.554Z,42.30
2019-06-26T19:40:23.638Z,41.85
2019-06-26T19:42:54.453Z,41.70
2019-06-26T19:45:27.806Z,41.49
2019-06-26T19:48:00.787Z,41.70
2019-06-26T19:50:33.241Z,41.75
2019-06-26T19:53:06.244Z,42.06
2019-06-26T19:55:39.138Z,42.90
2019-06-26T19:58:12.113Z,43.08
2019-06-26T20:00:45.004Z,43.40
2019-06-26T20:03:17.697Z,43.76
2019-06-26T20:05:50.719Z,44.09
2019-06-26T20:08:23.409Z,44.42
2019-06-26T20:10:56.223Z,44.80
2019-06-26T20:13:28.733Z,45.34
2019-06-26T20:16:01.393Z,45.75
2019-06-26T20:18:34.171Z,46.26
2019-06-26T20:21:06.705Z,46.76
2019-06-26T20:23:39.331Z,47.03
2019-06-26T20:26:12.195Z,47.49
2019-06-26T20:28:44.793Z,47.84
2019-06-26T20:31:17.231Z,48.20
2019-06-26T20:33:50.401Z,48.69
2019-06-26T20:36:23.433Z,49.16
2019-06-26T20:38:55.831Z,49.42
2019-06-26T20:41:28.580Z,49.83
2019-06-26T20:44:00.974Z,50.18
2019-06-26T20:46:33.673Z,50.56
2019-06-26T20:49:06.833Z,50.96
2019-06-26T20:51:39.816Z,51.33
2019-06-26T20:54:12.420Z,51.77
2019-06-26T20:56:45.181Z,52.09
2019-06-26T20:59:17.797Z,52.68
2019-06-26T21:01:50.493Z,52.95
2019-06-26T21:04:22.990Z,53.37
2019-06-26T21:06:55.274Z,53.89
2019-06-26T21:09:27.766Z,54.41
2019-06-26T21:12:00.345Z,54.60
2019-06-26T21:14:32.876Z,54.55
2019-06-26T21:17:05.364Z,54.59
2019-06-26T21:19:38.225Z,54.75
2019-06-26T21:22:11.140Z,55.05
2019-06-26T21:24:43.458Z,55.54
2019-06-26T21:27:16.001Z,55.20
2019-06-26T21:29:48.289Z,55.34
2019-06-26T21:32:20.516Z,55.46
2019-06-26T21:34:53.155Z,55.68
2019-06-26T21:37:25.947Z,55.78
2019-06-26T21:39:59.092Z,56.13
2019-06-26T21:42:31.513Z,56.11
2019-06-26T21:45:05.219Z,56.63
2019-06-26T21:47:37.936Z,56.92
2019-06-26T21:50:10.946Z,57.07
2019-06-26T21:52:43.706Z,57.74
2019-06-26T21:55:30.189Z,58.45
2019-06-26T21:58:09.852Z,58.45
2019-06-26T22:01:00.066Z,58.79
2019-06-26T22:03:50.154Z,59.05
2019-06-26T22:06:28.358Z,59.23
2019-06-26T22:09:19.219Z,59.79
2019-06-26T22:11:52.403Z,60.38
2019-06-26T22:14:25.016Z,60.63
2019-06-26T22:16:57.637Z,60.63
2019-06-26T22:19:29.891Z,60.81
2019-06-26T22:22:02.653Z,61.35
2019-06-26T22:24:35.137Z,61.70
2019-06-26T22:27:07.920Z,61.91
2019-06-26T22:29:40.396Z,62.14
2019-06-26T22:32:12.675Z,62.20
2019-06-26T22:34:48.098Z,62.07
2019-06-26T22:37:19.233Z,62.07
2019-06-26T22:39:51.712Z,62.44
2019-06-26T22:42:24.294Z,62.42
2019-06-26T22:44:57.046Z,62.47
2019-06-26T22:47:29.653Z,62.05
2019-06-26T22:50:02.177Z,62.24
2019-06-26T22:52:35.077Z,62.07
2019-06-26T22:55:08.496Z,62.18
2019-06-26T22:57:41.585Z,62.26
2019-06-26T23:00:16.525Z,62.32
2019-06-26T23:02:49.050Z,62.75
2019-06-26T23:05:22.192Z,63.00
2019-06-26T23:07:55.071Z,63.55
2019-06-26T23:10:27.746Z,64.06
2019-06-26T23:13:00.486Z,64.60
2019-06-26T23:15:32.912Z,65.25
2019-06-26T23:18:05.301Z,66.07
2019-06-26T23:20:38.417Z,65.99
2019-06-26T23:23:10.915Z,66.16
2019-06-26T23:25:43.364Z,65.43
2019-06-26T23:28:16.505Z,64.61
2019-06-26T23:30:49.359Z,64.14
2019-06-26T23:33:21.746Z,63.87
2019-06-26T23:35:54.746Z,63.64
2019-06-26T23:38:27.737Z,62.60
2019-06-26T23:41:00.496Z,62.08
2019-06-26T23:43:33.291Z,61.85
2019-06-26T23:46:05.724Z,61.23
2019-06-26T23:48:38.486Z,60.96
2019-06-26T23:51:11.540Z,61.36
2019-06-26T23:53:44.835Z,61.21
2019-06-26T23:56:17.273Z,61.23
2019-06-26T23:58:49.660Z,61.06
